sensor_id;sensor_type;location;lat;lon;timestamp;pressure;altitude;pressure_sealevel;temperature;humidity
57412;BME280;43247;52.828;-8.980;2022-11-20T00:00:23;100624.04;;;8.65;74.86
57412;BME280;43247;52.828;-8.980;2022-11-20T00:02:54;100628.97;;;8.70;74.84
57412;BME280;43247;52.828;-8.980;2022-11-20T00:05:25;100626.57;;;8.66;74.95
57412;BME280;43247;52.828;-8.980;2022-11-20T00:07:55;100627.16;;;8.65;74.84
57412;BME280;43247;52.828;-8.980;2022-11-20T00:10:25;100624.73;;;8.66;74.98
57412;BME280;43247;52.828;-8.980;2022-11-20T00:12:55;100631.71;;;8.65;74.99
57412;BME280;43247;52.828;-8.980;2022-11-20T00:15:25;100635.22;;;8.62;75.13
57412;BME280;43247;52.828;-8.980;2022-11-20T00:17:56;100631.23;;;8.60;74.90
57412;BME280;43247;52.828;-8.980;2022-11-20T00:20:26;100634.31;;;8.61;75.05
57412;BME280;43247;52.828;-8.980;2022-11-20T00:22:56;100629.98;;;8.61;75.08
57412;BME280;43247;52.828;-8.980;2022-11-20T00:25:27;100633.87;;;8.57;74.91
57412;BME280;43247;52.828;-8.980;2022-11-20T00:27:58;100633.20;;;8.55;75.09
57412;BME280;43247;52.828;-8.980;2022-11-20T00:30:28;100632.48;;;8.56;75.03
57412;BME280;43247;52.828;-8.980;2022-11-20T00:32:58;100634.01;;;8.54;75.03
57412;BME280;43247;52.828;-8.980;2022-11-20T00:35:28;100636.57;;;8.51;74.99
57412;BME280;43247;52.828;-8.980;2022-11-20T00:37:59;100633.50;;;8.47;75.20
57412;BME280;43247;52.828;-8.980;2022-11-20T00:40:29;100632.48;;;8.48;75.33
57412;BME280;43247;52.828;-8.980;2022-11-20T00:43:00;100638.43;;;8.44;75.20
57412;BME280;43247;52.828;-8.980;2022-11-20T00:45:30;100658.17;;;8.50;75.19
57412;BME280;43247;52.828;-8.980;2022-11-20T00:48:00;100677.76;;;8.51;75.45
57412;BME280;43247;52.828;-8.980;2022-11-20T00:50:30;100670.12;;;8.58;75.62
57412;BME280;43247;52.828;-8.980;2022-11-20T00:53:01;100673.43;;;8.65;76.29
57412;BME280;43247;52.828;-8.980;2022-11-20T00:55:31;100681.22;;;8.70;77.08
57412;BME280;43247;52.828;-8.980;2022-11-20T00:58:02;100670.80;;;8.75;77.26
57412;BME280;43247;52.828;-8.980;2022-11-20T01:00:32;100647.68;;;8.83;77.35
57412;BME280;43247;52.828;-8.980;2022-11-20T01:03:02;100649.93;;;8.91;77.35
57412;BME280;43247;52.828;-8.980;2022-11-20T01:05:35;100666.10;;;8.97;77.34
57412;BME280;43247;52.828;-8.980;2022-11-20T01:08:03;100681.08;;;9.02;77.09
57412;BME280;43247;52.828;-8.980;2022-11-20T01:10:33;100662.40;;;9.07;76.89
57412;BME280;43247;52.828;-8.980;2022-11-20T01:13:04;100661.81;;;9.12;76.81
57412;BME280;43247;52.828;-8.980;2022-11-20T01:15:34;100650.01;;;9.19;76.76
57412;BME280;43247;52.828;-8.980;2022-11-20T01:18:05;100644.78;;;9.23;76.65
57412;BME280;43247;52.828;-8.980;2022-11-20T01:20:36;100635.82;;;9.28;76.47
57412;BME280;43247;52.828;-8.980;2022-11-20T01:23:06;100629.93;;;9.30;76.43
57412;BME280;43247;52.828;-8.980;2022-11-20T01:25:36;100625.47;;;9.32;76.44
57412;BME280;43247;52.828;-8.980;2022-11-20T01:28:06;100619.15;;;9.35;76.34
57412;BME280;43247;52.828;-8.980;2022-11-20T01:30:37;100622.63;;;9.35;76.35
57412;BME280;43247;52.828;-8.980;2022-11-20T01:33:07;100624.63;;;9.36;76.36
57412;BME280;43247;52.828;-8.980;2022-11-20T01:35:38;100634.16;;;9.35;76.45
57412;BME280;43247;52.828;-8.980;2022-11-20T01:38:08;100642.85;;;9.34;76.51
57412;BME280;43247;52.828;-8.980;2022-11-20T01:40:39;100655.97;;;9.34;76.47
57412;BME280;43247;52.828;-8.980;2022-11-20T01:43:14;100650.01;;;9.33;76.52
57412;BME280;43247;52.828;-8.980;2022-11-20T01:48:11;100640.77;;;9.33;76.93
57412;BME280;43247;52.828;-8.980;2022-11-20T01:50:42;100640.72;;;9.33;76.91
57412;BME280;43247;52.828;-8.980;2022-11-20T01:53:14;100644.05;;;9.35;76.82
57412;BME280;43247;52.828;-8.980;2022-11-20T01:55:49;100632.94;;;9.39;76.81
57412;BME280;43247;52.828;-8.980;2022-11-20T01:58:13;100626.79;;;9.40;76.64
57412;BME280;43247;52.828;-8.980;2022-11-20T02:00:43;100621.74;;;9.42;76.31
57412;BME280;43247;52.828;-8.980;2022-11-20T02:03:16;100622.18;;;9.43;76.41
57412;BME280;43247;52.828;-8.980;2022-11-20T02:05:46;100629.50;;;9.43;76.22
57412;BME280;43247;52.828;-8.980;2022-11-20T02:08:14;100625.10;;;9.43;76.14
57412;BME280;43247;52.828;-8.980;2022-11-20T02:10:45;100629.26;;;9.42;75.91
57412;BME280;43247;52.828;-8.980;2022-11-20T02:13:16;100627.01;;;9.41;76.07
57412;BME280;43247;52.828;-8.980;2022-11-20T02:15:45;100629.62;;;9.40;76.07
57412;BME280;43247;52.828;-8.980;2022-11-20T02:18:18;100632.93;;;9.40;76.00
57412;BME280;43247;52.828;-8.980;2022-11-20T02:20:58;100631.65;;;9.40;75.86
57412;BME280;43247;52.828;-8.980;2022-11-20T02:23:23;100630.11;;;9.38;75.95
57412;BME280;43247;52.828;-8.980;2022-11-20T02:25:47;100630.66;;;9.38;75.81
57412;BME280;43247;52.828;-8.980;2022-11-20T02:28:18;100624.43;;;9.38;76.17
57412;BME280;43247;52.828;-8.980;2022-11-20T02:30:48;100629.64;;;9.38;75.98
57412;BME280;43247;52.828;-8.980;2022-11-20T02:33:18;100625.78;;;9.42;75.92
57412;BME280;43247;52.828;-8.980;2022-11-20T02:35:49;100624.81;;;9.41;75.99
57412;BME280;43247;52.828;-8.980;2022-11-20T02:38:19;100619.50;;;9.42;76.20
57412;BME280;43247;52.828;-8.980;2022-11-20T02:40:50;100611.80;;;9.43;76.15
57412;BME280;43247;52.828;-8.980;2022-11-20T02:43:20;100611.84;;;9.44;75.96
57412;BME280;43247;52.828;-8.980;2022-11-20T02:45:51;100614.51;;;9.47;75.81
57412;BME280;43247;52.828;-8.980;2022-11-20T02:48:22;100622.14;;;9.46;75.97
57412;BME280;43247;52.828;-8.980;2022-11-20T02:50:52;100622.55;;;9.45;76.05
57412;BME280;43247;52.828;-8.980;2022-11-20T02:53:22;100618.28;;;9.44;75.85
57412;BME280;43247;52.828;-8.980;2022-11-20T02:55:52;100622.45;;;9.45;75.89
57412;BME280;43247;52.828;-8.980;2022-11-20T02:58:23;100627.77;;;9.46;76.01
57412;BME280;43247;52.828;-8.980;2022-11-20T03:00:53;100637.02;;;9.46;75.91
57412;BME280;43247;52.828;-8.980;2022-11-20T03:03:23;100640.86;;;9.49;75.83
57412;BME280;43247;52.828;-8.980;2022-11-20T03:05:54;100655.11;;;9.51;76.01
57412;BME280;43247;52.828;-8.980;2022-11-20T03:08:24;100666.33;;;9.53;76.19
57412;BME280;43247;52.828;-8.980;2022-11-20T03:10:55;100669.28;;;9.57;76.10
57412;BME280;43247;52.828;-8.980;2022-11-20T03:13:25;100667.00;;;9.61;76.13
57412;BME280;43247;52.828;-8.980;2022-11-20T03:15:55;100673.42;;;9.65;76.21
57412;BME280;43247;52.828;-8.980;2022-11-20T03:18:28;100677.49;;;9.70;76.00
57412;BME280;43247;52.828;-8.980;2022-11-20T03:20:57;100671.83;;;9.74;76.16
57412;BME280;43247;52.828;-8.980;2022-11-20T03:23:29;100648.52;;;9.76;76.19
57412;BME280;43247;52.828;-8.980;2022-11-20T03:28:27;100627.67;;;9.78;76.27
57412;BME280;43247;52.828;-8.980;2022-11-20T03:30:58;100622.85;;;9.81;76.23
57412;BME280;43247;52.828;-8.980;2022-11-20T03:33:28;100618.74;;;9.81;76.16
57412;BME280;43247;52.828;-8.980;2022-11-20T03:36:01;100614.09;;;9.80;76.14
57412;BME280;43247;52.828;-8.980;2022-11-20T03:38:29;100618.16;;;9.78;76.19
57412;BME280;43247;52.828;-8.980;2022-11-20T03:41:01;100620.58;;;9.77;76.19
57412;BME280;43247;52.828;-8.980;2022-11-20T03:43:32;100617.18;;;9.74;76.23
57412;BME280;43247;52.828;-8.980;2022-11-20T03:46:01;100615.74;;;9.70;76.24
57412;BME280;43247;52.828;-8.980;2022-11-20T03:48:32;100612.74;;;9.66;76.22
57412;BME280;43247;52.828;-8.980;2022-11-20T03:51:08;100610.50;;;9.63;76.28
57412;BME280;43247;52.828;-8.980;2022-11-20T03:53:32;100608.36;;;9.58;76.27
57412;BME280;43247;52.828;-8.980;2022-11-20T03:56:03;100606.54;;;9.54;76.20
57412;BME280;43247;52.828;-8.980;2022-11-20T03:58:34;100604.22;;;9.50;76.23
57412;BME280;43247;52.828;-8.980;2022-11-20T04:01:06;100597.50;;;9.49;76.04
57412;BME280;43247;52.828;-8.980;2022-11-20T04:03:35;100589.47;;;9.43;76.15
57412;BME280;43247;52.828;-8.980;2022-11-20T04:06:07;100590.72;;;9.41;76.18
57412;BME280;43247;52.828;-8.980;2022-11-20T04:08:36;100589.47;;;9.36;76.20
57412;BME280;43247;52.828;-8.980;2022-11-20T04:11:10;100596.46;;;9.34;76.25
57412;BME280;43247;52.828;-8.980;2022-11-20T04:13:37;100601.19;;;9.29;76.39
57412;BME280;43247;52.828;-8.980;2022-11-20T04:16:08;100597.85;;;9.27;76.32
57412;BME280;43247;52.828;-8.980;2022-11-20T04:18:38;100597.85;;;9.23;76.39
57412;BME280;43247;52.828;-8.980;2022-11-20T04:21:08;100595.70;;;9.19;76.38
57412;BME280;43247;52.828;-8.980;2022-11-20T04:23:38;100596.97;;;9.18;76.45
57412;BME280;43247;52.828;-8.980;2022-11-20T04:26:11;100598.77;;;9.16;76.46
57412;BME280;43247;52.828;-8.980;2022-11-20T04:28:40;100599.15;;;9.11;76.46
57412;BME280;43247;52.828;-8.980;2022-11-20T04:31:11;100594.42;;;9.10;76.37
57412;BME280;43247;52.828;-8.980;2022-11-20T04:33:40;100590.99;;;9.06;76.37
57412;BME280;43247;52.828;-8.980;2022-11-20T04:36:13;100583.10;;;9.03;76.34
57412;BME280;43247;52.828;-8.980;2022-11-20T04:38:41;100585.50;;;8.99;76.52
57412;BME280;43247;52.828;-8.980;2022-11-20T04:41:16;100589.25;;;8.99;76.32
57412;BME280;43247;52.828;-8.980;2022-11-20T04:43:46;100591.60;;;8.94;76.27
57412;BME280;43247;52.828;-8.980;2022-11-20T04:46:13;100587.29;;;8.90;76.27
57412;BME280;43247;52.828;-8.980;2022-11-20T04:48:43;100587.05;;;8.86;76.26
57412;BME280;43247;52.828;-8.980;2022-11-20T04:51:14;100587.00;;;8.84;76.22
57412;BME280;43247;52.828;-8.980;2022-11-20T04:53:44;100585.56;;;8.79;76.27
57412;BME280;43247;52.828;-8.980;2022-11-20T04:56:15;100582.78;;;8.78;76.17
57412;BME280;43247;52.828;-8.980;2022-11-20T04:58:45;100578.32;;;8.73;76.21
57412;BME280;43247;52.828;-8.980;2022-11-20T05:01:17;100582.04;;;8.70;76.20
57412;BME280;43247;52.828;-8.980;2022-11-20T05:03:47;100587.88;;;8.67;76.09
57412;BME280;43247;52.828;-8.980;2022-11-20T05:06:19;100592.93;;;8.63;76.01
57412;BME280;43247;52.828;-8.980;2022-11-20T05:08:47;100580.37;;;8.62;76.05
57412;BME280;43247;52.828;-8.980;2022-11-20T05:11:20;100559.37;;;8.62;76.11
57412;BME280;43247;52.828;-8.980;2022-11-20T05:13:49;100547.89;;;8.58;76.17
57412;BME280;43247;52.828;-8.980;2022-11-20T05:16:21;100552.47;;;8.56;76.15
57412;BME280;43247;52.828;-8.980;2022-11-20T05:18:50;100566.03;;;8.52;76.08
57412;BME280;43247;52.828;-8.980;2022-11-20T05:21:20;100550.17;;;8.54;75.97
57412;BME280;43247;52.828;-8.980;2022-11-20T05:23:51;100516.86;;;8.55;75.69
57412;BME280;43247;52.828;-8.980;2022-11-20T05:26:22;100478.54;;;8.55;75.60
57412;BME280;43247;52.828;-8.980;2022-11-20T05:28:51;100528.32;;;8.59;75.54
57412;BME280;43247;52.828;-8.980;2022-11-20T05:31:24;100557.48;;;8.63;75.62
57412;BME280;43247;52.828;-8.980;2022-11-20T05:33:52;100564.66;;;8.66;75.85
57412;BME280;43247;52.828;-8.980;2022-11-20T05:36:23;100562.11;;;8.68;75.94
57412;BME280;43247;52.828;-8.980;2022-11-20T05:38:53;100538.66;;;8.70;76.04
57412;BME280;43247;52.828;-8.980;2022-11-20T05:41:23;100539.59;;;8.75;75.89
57412;BME280;43247;52.828;-8.980;2022-11-20T05:43:56;100540.35;;;8.78;75.93
57412;BME280;43247;52.828;-8.980;2022-11-20T05:46:25;100542.97;;;8.79;76.01
57412;BME280;43247;52.828;-8.980;2022-11-20T05:48:55;100540.02;;;8.81;75.91
57412;BME280;43247;52.828;-8.980;2022-11-20T05:51:25;100550.26;;;8.81;76.03
57412;BME280;43247;52.828;-8.980;2022-11-20T05:53:56;100554.66;;;8.82;75.99
57412;BME280;43247;52.828;-8.980;2022-11-20T05:56:25;100563.68;;;8.81;75.99
57412;BME280;43247;52.828;-8.980;2022-11-20T05:58:56;100570.29;;;8.82;76.01
57412;BME280;43247;52.828;-8.980;2022-11-20T06:01:26;100568.91;;;8.79;76.10
57412;BME280;43247;52.828;-8.980;2022-11-20T06:03:57;100577.18;;;8.78;76.08
57412;BME280;43247;52.828;-8.980;2022-11-20T06:06:27;100583.47;;;8.78;76.03
57412;BME280;43247;52.828;-8.980;2022-11-20T06:08:58;100581.31;;;8.76;76.15
57412;BME280;43247;52.828;-8.980;2022-11-20T06:11:28;100575.65;;;8.77;76.14
57412;BME280;43247;52.828;-8.980;2022-11-20T06:13:58;100579.43;;;8.77;76.09
57412;BME280;43247;52.828;-8.980;2022-11-20T06:16:29;100582.07;;;8.75;76.12
57412;BME280;43247;52.828;-8.980;2022-11-20T06:18:59;100581.59;;;8.75;76.14
57412;BME280;43247;52.828;-8.980;2022-11-20T06:21:30;100586.61;;;8.77;76.04
57412;BME280;43247;52.828;-8.980;2022-11-20T06:24:00;100594.30;;;8.77;76.13
57412;BME280;43247;52.828;-8.980;2022-11-20T06:26:31;100588.96;;;8.80;76.07
57412;BME280;43247;52.828;-8.980;2022-11-20T06:29:01;100585.52;;;8.82;75.95
57412;BME280;43247;52.828;-8.980;2022-11-20T06:31:32;100587.83;;;8.85;76.08
57412;BME280;43247;52.828;-8.980;2022-11-20T06:34:02;100594.82;;;8.85;76.17
57412;BME280;43247;52.828;-8.980;2022-11-20T06:36:33;100600.61;;;8.86;76.22
57412;BME280;43247;52.828;-8.980;2022-11-20T06:39:03;100602.31;;;8.87;76.33
57412;BME280;43247;52.828;-8.980;2022-11-20T06:41:33;100602.83;;;8.88;76.37
57412;BME280;43247;52.828;-8.980;2022-11-20T06:44:04;100599.71;;;8.91;76.10
57412;BME280;43247;52.828;-8.980;2022-11-20T06:46:34;100585.61;;;8.93;76.15
57412;BME280;43247;52.828;-8.980;2022-11-20T06:49:05;100581.13;;;8.95;76.14
57412;BME280;43247;52.828;-8.980;2022-11-20T06:51:35;100568.49;;;9.00;76.01
57412;BME280;43247;52.828;-8.980;2022-11-20T06:54:06;100565.31;;;9.02;76.04
57412;BME280;43247;52.828;-8.980;2022-11-20T06:56:36;100569.79;;;9.03;76.07
57412;BME280;43247;52.828;-8.980;2022-11-20T06:59:07;100573.97;;;9.03;76.18
57412;BME280;43247;52.828;-8.980;2022-11-20T07:01:37;100576.97;;;9.03;76.28
57412;BME280;43247;52.828;-8.980;2022-11-20T07:04:07;100582.13;;;9.04;76.12
57412;BME280;43247;52.828;-8.980;2022-11-20T07:06:37;100582.40;;;9.04;76.25
57412;BME280;43247;52.828;-8.980;2022-11-20T07:09:08;100587.83;;;9.04;76.33
57412;BME280;43247;52.828;-8.980;2022-11-20T07:11:39;100584.41;;;9.05;76.17
57412;BME280;43247;52.828;-8.980;2022-11-20T07:14:09;100584.82;;;9.05;76.25
57412;BME280;43247;52.828;-8.980;2022-11-20T07:16:39;100608.69;;;9.09;76.02
57412;BME280;43247;52.828;-8.980;2022-11-20T07:19:10;100631.16;;;9.15;75.69
57412;BME280;43247;52.828;-8.980;2022-11-20T07:21:40;100614.34;;;9.18;75.99
57412;BME280;43247;52.828;-8.980;2022-11-20T07:24:11;100626.06;;;9.21;75.95
57412;BME280;43247;52.828;-8.980;2022-11-20T07:26:42;100631.67;;;9.24;76.19
57412;BME280;43247;52.828;-8.980;2022-11-20T07:29:12;100632.08;;;9.28;76.05
57412;BME280;43247;52.828;-8.980;2022-11-20T07:31:43;100634.82;;;9.32;76.10
57412;BME280;43247;52.828;-8.980;2022-11-20T07:34:13;100632.89;;;9.35;76.19
57412;BME280;43247;52.828;-8.980;2022-11-20T07:36:43;100629.88;;;9.40;76.14
57412;BME280;43247;52.828;-8.980;2022-11-20T07:39:14;100636.65;;;9.36;76.29
57412;BME280;43247;52.828;-8.980;2022-11-20T07:41:44;100631.98;;;9.43;76.21
57412;BME280;43247;52.828;-8.980;2022-11-20T07:44:15;100627.82;;;9.40;76.23
57412;BME280;43247;52.828;-8.980;2022-11-20T07:46:45;100628.87;;;9.43;76.22
57412;BME280;43247;52.828;-8.980;2022-11-20T07:49:15;100627.31;;;9.46;76.02
57412;BME280;43247;52.828;-8.980;2022-11-20T07:51:46;100637.44;;;9.45;76.00
57412;BME280;43247;52.828;-8.980;2022-11-20T07:54:16;100638.77;;;9.44;76.10
57412;BME280;43247;52.828;-8.980;2022-11-20T07:56:47;100635.81;;;9.42;76.25
57412;BME280;43247;52.828;-8.980;2022-11-20T07:59:17;100628.10;;;9.41;76.47
57412;BME280;43247;52.828;-8.980;2022-11-20T08:01:48;100616.76;;;9.43;76.39
57412;BME280;43247;52.828;-8.980;2022-11-20T08:04:18;100606.90;;;9.43;76.15
57412;BME280;43247;52.828;-8.980;2022-11-20T08:06:49;100608.12;;;9.42;76.18
57412;BME280;43247;52.828;-8.980;2022-11-20T08:09:19;100613.48;;;9.43;76.20
57412;BME280;43247;52.828;-8.980;2022-11-20T08:11:50;100633.03;;;9.45;75.93
57412;BME280;43247;52.828;-8.980;2022-11-20T08:14:20;100639.07;;;9.44;75.99
57412;BME280;43247;52.828;-8.980;2022-11-20T08:16:51;100632.09;;;9.45;75.78
57412;BME280;43247;52.828;-8.980;2022-11-20T08:19:21;100633.80;;;9.42;76.29
57412;BME280;43247;52.828;-8.980;2022-11-20T08:21:52;100629.06;;;9.44;76.01
57412;BME280;43247;52.828;-8.980;2022-11-20T08:24:23;100621.50;;;9.44;76.17
57412;BME280;43247;52.828;-8.980;2022-11-20T08:26:53;100619.43;;;9.45;76.13
57412;BME280;43247;52.828;-8.980;2022-11-20T08:29:24;100625.07;;;9.44;76.25
57412;BME280;43247;52.828;-8.980;2022-11-20T08:31:54;100633.75;;;9.45;76.16
57412;BME280;43247;52.828;-8.980;2022-11-20T08:34:25;100642.12;;;9.47;76.07
57412;BME280;43247;52.828;-8.980;2022-11-20T08:36:55;100639.58;;;9.45;76.38
57412;BME280;43247;52.828;-8.980;2022-11-20T08:39:26;100646.57;;;9.46;76.31
57412;BME280;43247;52.828;-8.980;2022-11-20T08:41:56;100626.53;;;9.47;76.35
57412;BME280;43247;52.828;-8.980;2022-11-20T08:44:27;100602.42;;;9.46;76.42
57412;BME280;43247;52.828;-8.980;2022-11-20T08:46:57;100590.18;;;9.48;76.41
57412;BME280;43247;52.828;-8.980;2022-11-20T08:49:28;100583.05;;;9.49;76.38
57412;BME280;43247;52.828;-8.980;2022-11-20T08:51:58;100569.15;;;9.49;76.44
57412;BME280;43247;52.828;-8.980;2022-11-20T08:54:29;100577.07;;;9.51;76.38
57412;BME280;43247;52.828;-8.980;2022-11-20T08:56:59;100591.78;;;9.48;76.44
57412;BME280;43247;52.828;-8.980;2022-11-20T08:59:30;100598.74;;;9.45;76.42
57412;BME280;43247;52.828;-8.980;2022-11-20T09:02:00;100604.81;;;9.44;76.23
57412;BME280;43247;52.828;-8.980;2022-11-20T09:04:31;100606.04;;;9.43;76.25
57412;BME280;43247;52.828;-8.980;2022-11-20T09:07:01;100614.78;;;9.42;76.24
57412;BME280;43247;52.828;-8.980;2022-11-20T09:09:32;100614.28;;;9.39;76.25
57412;BME280;43247;52.828;-8.980;2022-11-20T09:12:03;100610.51;;;9.39;76.25
57412;BME280;43247;52.828;-8.980;2022-11-20T09:14:33;100596.88;;;9.38;76.25
57412;BME280;43247;52.828;-8.980;2022-11-20T09:17:03;100596.46;;;9.37;76.28
57412;BME280;43247;52.828;-8.980;2022-11-20T09:19:34;100592.30;;;9.38;76.32
57412;BME280;43247;52.828;-8.980;2022-11-20T09:22:04;100592.84;;;9.41;76.30
57412;BME280;43247;52.828;-8.980;2022-11-20T09:24:35;100597.81;;;9.42;76.35
57412;BME280;43247;52.828;-8.980;2022-11-20T09:27:05;100598.19;;;9.46;76.23
57412;BME280;43247;52.828;-8.980;2022-11-20T09:29:36;100604.83;;;9.49;76.21
57412;BME280;43247;52.828;-8.980;2022-11-20T09:32:06;100603.07;;;9.56;76.15
57412;BME280;43247;52.828;-8.980;2022-11-20T09:34:37;100595.55;;;9.61;76.32
57412;BME280;43247;52.828;-8.980;2022-11-20T09:37:07;100596.74;;;9.67;76.26
57412;BME280;43247;52.828;-8.980;2022-11-20T09:39:38;100615.69;;;9.74;76.20
57412;BME280;43247;52.828;-8.980;2022-11-20T09:42:24;100629.79;;;9.83;76.03
57412;BME280;43247;52.828;-8.980;2022-11-20T09:44:49;100627.15;;;9.91;75.90
57412;BME280;43247;52.828;-8.980;2022-11-20T09:47:14;100632.41;;;10.03;75.56
57412;BME280;43247;52.828;-8.980;2022-11-20T09:49:52;100647.81;;;10.11;75.46
57412;BME280;43247;52.828;-8.980;2022-11-20T09:52:17;100642.98;;;10.22;75.43
57412;BME280;43247;52.828;-8.980;2022-11-20T09:54:41;100629.88;;;10.28;75.62
57412;BME280;43247;52.828;-8.980;2022-11-20T09:57:14;100636.82;;;10.34;75.41
57412;BME280;43247;52.828;-8.980;2022-11-20T09:59:44;100662.77;;;10.36;75.23
57412;BME280;43247;52.828;-8.980;2022-11-20T10:02:17;100642.94;;;10.39;75.19
57412;BME280;43247;52.828;-8.980;2022-11-20T10:04:49;100659.70;;;10.40;75.19
57412;BME280;43247;52.828;-8.980;2022-11-20T10:07:17;100658.10;;;10.42;75.14
57412;BME280;43247;52.828;-8.980;2022-11-20T10:09:50;100644.04;;;10.43;75.23
57412;BME280;43247;52.828;-8.980;2022-11-20T10:12:20;100656.88;;;10.45;75.12
57412;BME280;43247;52.828;-8.980;2022-11-20T10:14:56;100659.74;;;10.44;75.24
57412;BME280;43247;52.828;-8.980;2022-11-20T10:17:27;100656.70;;;10.42;75.20
57412;BME280;43247;52.828;-8.980;2022-11-20T10:19:56;100645.22;;;10.41;75.24
57412;BME280;43247;52.828;-8.980;2022-11-20T10:22:27;100648.24;;;10.40;75.38
57412;BME280;43247;52.828;-8.980;2022-11-20T10:24:54;100642.82;;;10.39;75.32
57412;BME280;43247;52.828;-8.980;2022-11-20T10:27:34;100643.72;;;10.40;75.42
57412;BME280;43247;52.828;-8.980;2022-11-20T10:29:54;100644.11;;;10.40;75.49
57412;BME280;43247;52.828;-8.980;2022-11-20T10:32:20;100640.67;;;10.42;75.40
57412;BME280;43247;52.828;-8.980;2022-11-20T10:34:52;100641.04;;;10.42;75.46
57412;BME280;43247;52.828;-8.980;2022-11-20T10:37:23;100637.31;;;10.44;75.47
57412;BME280;43247;52.828;-8.980;2022-11-20T10:39:54;100635.89;;;10.44;75.51
57412;BME280;43247;52.828;-8.980;2022-11-20T10:42:26;100638.13;;;10.47;75.51
57412;BME280;43247;52.828;-8.980;2022-11-20T10:44:54;100640.73;;;10.48;75.46
57412;BME280;43247;52.828;-8.980;2022-11-20T10:47:20;100639.82;;;10.53;75.43
57412;BME280;43247;52.828;-8.980;2022-11-20T10:49:54;100648.08;;;10.55;75.40
57412;BME280;43247;52.828;-8.980;2022-11-20T10:52:28;100655.56;;;10.60;75.26
57412;BME280;43247;52.828;-8.980;2022-11-20T10:54:56;100659.82;;;10.67;75.25
57412;BME280;43247;52.828;-8.980;2022-11-20T10:57:38;100666.96;;;10.70;75.24
57412;BME280;43247;52.828;-8.980;2022-11-20T11:00:01;100667.00;;;10.76;75.44
57412;BME280;43247;52.828;-8.980;2022-11-20T11:02:24;100662.20;;;10.82;75.33
57412;BME280;43247;52.828;-8.980;2022-11-20T11:04:54;100666.02;;;10.85;75.33
57412;BME280;43247;52.828;-8.980;2022-11-20T11:07:27;100659.87;;;10.87;75.13
57412;BME280;43247;52.828;-8.980;2022-11-20T11:09:55;100666.21;;;10.87;74.93
57412;BME280;43247;52.828;-8.980;2022-11-20T11:12:25;100676.05;;;10.89;74.70
57412;BME280;43247;52.828;-8.980;2022-11-20T11:14:56;100679.64;;;10.89;74.68
57412;BME280;43247;52.828;-8.980;2022-11-20T11:17:27;100681.80;;;10.88;74.65
57412;BME280;43247;52.828;-8.980;2022-11-20T11:19:59;100680.44;;;10.89;74.63
57412;BME280;43247;52.828;-8.980;2022-11-20T11:22:28;100680.32;;;10.89;74.59
57412;BME280;43247;52.828;-8.980;2022-11-20T11:24:57;100681.99;;;10.87;74.62
57412;BME280;43247;52.828;-8.980;2022-11-20T11:27:27;100682.88;;;10.88;74.71
57412;BME280;43247;52.828;-8.980;2022-11-20T11:32:28;100697.23;;;10.90;74.75
57412;BME280;43247;52.828;-8.980;2022-11-20T11:34:59;100699.43;;;10.92;74.70
57412;BME280;43247;52.828;-8.980;2022-11-20T11:37:33;100681.65;;;10.90;74.63
57412;BME280;43247;52.828;-8.980;2022-11-20T11:39:59;100675.42;;;10.88;74.78
57412;BME280;43247;52.828;-8.980;2022-11-20T11:42:29;100667.68;;;10.90;74.78
57412;BME280;43247;52.828;-8.980;2022-11-20T11:45:00;100677.90;;;10.92;74.84
57412;BME280;43247;52.828;-8.980;2022-11-20T11:47:32;100684.97;;;10.95;74.83
57412;BME280;43247;52.828;-8.980;2022-11-20T11:52:33;100690.92;;;11.00;74.76
57412;BME280;43247;52.828;-8.980;2022-11-20T11:55:04;100690.33;;;11.00;74.82
57412;BME280;43247;52.828;-8.980;2022-11-20T11:57:40;100674.03;;;11.03;74.78
57412;BME280;43247;52.828;-8.980;2022-11-20T12:00:06;100678.54;;;11.04;74.83
57412;BME280;43247;52.828;-8.980;2022-11-20T12:02:38;100681.01;;;11.08;74.76
57412;BME280;43247;52.828;-8.980;2022-11-20T12:05:16;100686.74;;;11.09;74.78
57412;BME280;43247;52.828;-8.980;2022-11-20T12:07:39;100688.88;;;11.12;74.83
57412;BME280;43247;52.828;-8.980;2022-11-20T12:10:14;100689.87;;;11.15;74.90
57412;BME280;43247;52.828;-8.980;2022-11-20T12:12:40;100692.11;;;11.21;74.82
57412;BME280;43247;52.828;-8.980;2022-11-20T12:15:08;100700.21;;;11.22;75.02
57412;BME280;43247;52.828;-8.980;2022-11-20T12:17:37;100699.95;;;11.28;75.07
57412;BME280;43247;52.828;-8.980;2022-11-20T12:20:12;100711.39;;;11.35;74.92
57412;BME280;43247;52.828;-8.980;2022-11-20T12:22:43;100729.22;;;11.43;74.89
57412;BME280;43247;52.828;-8.980;2022-11-20T12:25:11;100722.97;;;11.49;74.81
57412;BME280;43247;52.828;-8.980;2022-11-20T12:27:47;100716.81;;;11.53;74.76
57412;BME280;43247;52.828;-8.980;2022-11-20T12:30:11;100736.91;;;11.56;74.68
57412;BME280;43247;52.828;-8.980;2022-11-20T12:32:48;100729.06;;;11.57;74.27
57412;BME280;43247;52.828;-8.980;2022-11-20T12:35:23;100713.22;;;11.50;74.12
57412;BME280;43247;52.828;-8.980;2022-11-20T12:37:47;100703.26;;;11.44;74.28
57412;BME280;43247;52.828;-8.980;2022-11-20T12:40:18;100705.11;;;11.48;74.30
57412;BME280;43247;52.828;-8.980;2022-11-20T12:42:52;100706.47;;;11.54;73.94
57412;BME280;43247;52.828;-8.980;2022-11-20T12:45:22;100706.21;;;11.57;73.97
57412;BME280;43247;52.828;-8.980;2022-11-20T12:47:55;100714.85;;;11.56;73.86
57412;BME280;43247;52.828;-8.980;2022-11-20T12:50:19;100708.82;;;11.56;74.07
57412;BME280;43247;52.828;-8.980;2022-11-20T12:52:47;100693.87;;;11.58;73.78
57412;BME280;43247;52.828;-8.980;2022-11-20T12:55:21;100706.40;;;11.56;73.81
57412;BME280;43247;52.828;-8.980;2022-11-20T12:57:51;100701.40;;;11.53;73.89
57412;BME280;43247;52.828;-8.980;2022-11-20T13:00:16;100702.47;;;11.51;73.94
57412;BME280;43247;52.828;-8.980;2022-11-20T13:02:58;100708.61;;;11.51;73.85
57412;BME280;43247;52.828;-8.980;2022-11-20T13:05:19;100710.75;;;11.49;73.93
57412;BME280;43247;52.828;-8.980;2022-11-20T13:07:46;100719.10;;;11.47;73.90
57412;BME280;43247;52.828;-8.980;2022-11-20T13:10:23;100713.20;;;11.47;74.07
57412;BME280;43247;52.828;-8.980;2022-11-20T13:12:49;100709.42;;;11.46;74.12